sensor_id;sensor_type;location;lat;lon;timestamp;pressure;altitude;pressure_sealevel;temperature;humidity
13867;BME280;7003;46.982;15.248;2023-05-20T00:01:05;97619.66;;;12.43;100.00
13867;BME280;7003;46.982;15.248;2023-05-20T00:03:36;97616.69;;;12.44;100.00
13867;BME280;7003;46.982;15.248;2023-05-20T00:06:05;97612.13;;;12.45;100.00
13867;BME280;7003;46.982;15.248;2023-05-20T00:08:35;97616.69;;;12.44;100.00
13867;BME280;7003;46.982;15.248;2023-05-20T00:11:02;97610.19;;;12.54;100.00
13867;BME280;7003;46.982;15.248;2023-05-20T00:13:29;97610.69;;;12.47;100.00
13867;BME280;7003;46.982;15.248;2023-05-20T00:15:56;97603.22;;;12.61;100.00
13867;BME280;7003;46.982;15.248;2023-05-20T00:18:25;97600.19;;;12.63;100.00
13867;BME280;7003;46.982;15.248;2023-05-20T00:20:56;97607.16;;;12.55;100.00
13867;BME280;7003;46.982;15.248;2023-05-20T00:23:25;97595.06;;;12.58;100.00
13867;BME280;7003;46.982;15.248;2023-05-20T00:25:55;97596.63;;;12.59;100.00
13867;BME280;7003;46.982;15.248;2023-05-20T00:28:24;97602.09;;;12.62;100.00
13867;BME280;7003;46.982;15.248;2023-05-20T00:30:53;97597.81;;;12.49;100.00
13867;BME280;7003;46.982;15.248;2023-05-20T00:33:20;97595.72;;;12.55;100.00
13867;BME280;7003;46.982;15.248;2023-05-20T00:35:50;97592.25;;;12.54;100.00
13867;BME280;7003;46.982;15.248;2023-05-20T00:38:18;97596.50;;;12.55;100.00
13867;BME280;7003;46.982;15.248;2023-05-20T00:40:47;97605.53;;;12.42;100.00
13867;BME280;7003;46.982;15.248;2023-05-20T00:43:17;97600.00;;;12.47;100.00
13867;BME280;7003;46.982;15.248;2023-05-20T00:45:45;97589.34;;;12.47;100.00
13867;BME280;7003;46.982;15.248;2023-05-20T00:48:12;97602.09;;;12.62;100.00
13867;BME280;7003;46.982;15.248;2023-05-20T00:50:40;97597.09;;;12.61;100.00
13867;BME280;7003;46.982;15.248;2023-05-20T00:53:09;97592.06;;;12.59;100.00
13867;BME280;7003;46.982;15.248;2023-05-20T00:55:38;97589.88;;;12.61;100.00
13867;BME280;7003;46.982;15.248;2023-05-20T00:58:07;97588.09;;;12.65;100.00
13867;BME280;7003;46.982;15.248;2023-05-20T01:00:34;97591.00;;;12.72;100.00
13867;BME280;7003;46.982;15.248;2023-05-20T01:03:04;97579.03;;;12.79;100.00
13867;BME280;7003;46.982;15.248;2023-05-20T01:05:31;97580.34;;;12.72;100.00
13867;BME280;7003;46.982;15.248;2023-05-20T01:08:00;97573.97;;;12.65;100.00
13867;BME280;7003;46.982;15.248;2023-05-20T01:10:28;97571.38;;;12.56;100.00
13867;BME280;7003;46.982;15.248;2023-05-20T01:13:00;97566.56;;;12.50;100.00
13867;BME280;7003;46.982;15.248;2023-05-20T01:15:31;97564.28;;;12.40;100.00
13867;BME280;7003;46.982;15.248;2023-05-20T01:18:01;97557.06;;;12.40;100.00
13867;BME280;7003;46.982;15.248;2023-05-20T01:20:33;97564.09;;;12.45;100.00
13867;BME280;7003;46.982;15.248;2023-05-20T01:23:03;97572.81;;;12.54;100.00
13867;BME280;7003;46.982;15.248;2023-05-20T01:25:30;97577.56;;;12.69;100.00
13867;BME280;7003;46.982;15.248;2023-05-20T01:27:59;97574.75;;;12.65;100.00
13867;BME280;7003;46.982;15.248;2023-05-20T01:30:29;97568.06;;;12.59;100.00
13867;BME280;7003;46.982;15.248;2023-05-20T01:33:04;97569.47;;;12.57;100.00
13867;BME280;7003;46.982;15.248;2023-05-20T01:35:38;97571.31;;;12.44;100.00
13867;BME280;7003;46.982;15.248;2023-05-20T01:38:10;97581.66;;;12.66;100.00
13867;BME280;7003;46.982;15.248;2023-05-20T01:40:41;97571.84;;;12.58;100.00
13867;BME280;7003;46.982;15.248;2023-05-20T01:43:12;97566.72;;;12.53;100.00
13867;BME280;7003;46.982;15.248;2023-05-20T01:45:40;97568.53;;;12.61;100.00
13867;BME280;7003;46.982;15.248;2023-05-20T01:48:10;97569.81;;;12.55;100.00
13867;BME280;7003;46.982;15.248;2023-05-20T01:50:39;97572.03;;;12.53;100.00
13867;BME280;7003;46.982;15.248;2023-05-20T01:53:06;97586.59;;;12.56;100.00
13867;BME280;7003;46.982;15.248;2023-05-20T01:55:38;97580.47;;;12.55;100.00
13867;BME280;7003;46.982;15.248;2023-05-20T01:58:09;97571.38;;;12.56;100.00
13867;BME280;7003;46.982;15.248;2023-05-20T02:00:36;97566.16;;;12.39;100.00
13867;BME280;7003;46.982;15.248;2023-05-20T02:03:04;97573.75;;;12.37;100.00
13867;BME280;7003;46.982;15.248;2023-05-20T02:05:31;97571.66;;;12.43;100.00
13867;BME280;7003;46.982;15.248;2023-05-20T02:08:00;97581.41;;;12.59;100.00
13867;BME280;7003;46.982;15.248;2023-05-20T02:10:27;97576.59;;;12.53;100.00
13867;BME280;7003;46.982;15.248;2023-05-20T02:12:55;97566.09;;;12.48;100.00
13867;BME280;7003;46.982;15.248;2023-05-20T02:15:23;97576.13;;;12.51;100.00
13867;BME280;7003;46.982;15.248;2023-05-20T02:17:50;97569.38;;;12.53;100.00
13867;BME280;7003;46.982;15.248;2023-05-20T02:20:18;97569.31;;;12.62;100.00
13867;BME280;7003;46.982;15.248;2023-05-20T02:22:45;97563.31;;;12.44;100.00
13867;BME280;7003;46.982;15.248;2023-05-20T02:25:15;97564.16;;;12.36;100.00
13867;BME280;7003;46.982;15.248;2023-05-20T02:27:41;97569.31;;;12.41;100.00
13867;BME280;7003;46.982;15.248;2023-05-20T02:30:10;97571.25;;;12.32;100.00
13867;BME280;7003;46.982;15.248;2023-05-20T02:32:38;97590.38;;;12.34;100.00
13867;BME280;7003;46.982;15.248;2023-05-20T02:35:07;97599.47;;;12.33;100.00
13867;BME280;7003;46.982;15.248;2023-05-20T02:37:34;97582.84;;;12.36;100.00
13867;BME280;7003;46.982;15.248;2023-05-20T02:40:04;97566.31;;;12.43;100.00
13867;BME280;7003;46.982;15.248;2023-05-20T02:42:35;97564.75;;;12.21;100.00
13867;BME280;7003;46.982;15.248;2023-05-20T02:45:03;97583.22;;;12.26;100.00
13867;BME280;7003;46.982;15.248;2023-05-20T02:47:32;97573.91;;;12.32;100.00
13867;BME280;7003;46.982;15.248;2023-05-20T02:50:02;97572.81;;;12.33;100.00
13867;BME280;7003;46.982;15.248;2023-05-20T02:52:29;97564.81;;;12.33;100.00
13867;BME280;7003;46.982;15.248;2023-05-20T02:54:56;97564.63;;;12.38;100.00
13867;BME280;7003;46.982;15.248;2023-05-20T02:57:23;97560.19;;;12.42;100.00
13867;BME280;7003;46.982;15.248;2023-05-20T02:59:52;97554.41;;;12.40;100.00
13867;BME280;7003;46.982;15.248;2023-05-20T03:02:19;97552.66;;;12.44;100.00
13867;BME280;7003;46.982;15.248;2023-05-20T03:04:50;97556.09;;;12.45;100.00
13867;BME280;7003;46.982;15.248;2023-05-20T03:07:18;97566.97;;;12.19;100.00
13867;BME280;7003;46.982;15.248;2023-05-20T03:09:48;97566.44;;;12.25;100.00
13867;BME280;7003;46.982;15.248;2023-05-20T03:12:15;97573.66;;;12.25;100.00
13867;BME280;7003;46.982;15.248;2023-05-20T03:14:45;97570.97;;;12.25;100.00
13867;BME280;7003;46.982;15.248;2023-05-20T03:17:12;97576.16;;;12.30;100.00
13867;BME280;7003;46.982;15.248;2023-05-20T03:19:40;97574.38;;;12.34;100.00
13867;BME280;7003;46.982;15.248;2023-05-20T03:22:09;97564.50;;;12.34;100.00
13867;BME280;7003;46.982;15.248;2023-05-20T03:24:37;97566.16;;;12.39;100.00
13867;BME280;7003;46.982;15.248;2023-05-20T03:27:05;97565.53;;;12.42;100.00
13867;BME280;7003;46.982;15.248;2023-05-20T03:29:33;97562.53;;;12.44;100.00
13867;BME280;7003;46.982;15.248;2023-05-20T03:32:03;97567.34;;;12.50;100.00
13867;BME280;7003;46.982;15.248;2023-05-20T03:34:31;97572.53;;;12.47;100.00
13867;BME280;7003;46.982;15.248;2023-05-20T03:37:00;97573.47;;;12.30;100.00
13867;BME280;7003;46.982;15.248;2023-05-20T03:39:31;97575.22;;;12.47;100.00
13867;BME280;7003;46.982;15.248;2023-05-20T03:41:59;97572.03;;;12.32;100.00
13867;BME280;7003;46.982;15.248;2023-05-20T03:44:29;97575.94;;;12.35;100.00
13867;BME280;7003;46.982;15.248;2023-05-20T03:47:00;97571.50;;;12.39;100.00
13867;BME280;7003;46.982;15.248;2023-05-20T03:49:28;97572.69;;;12.50;100.00
13867;BME280;7003;46.982;15.248;2023-05-20T03:52:01;97568.66;;;12.44;100.00
13867;BME280;7003;46.982;15.248;2023-05-20T03:54:31;97568.00;;;12.47;100.00
13867;BME280;7003;46.982;15.248;2023-05-20T03:57:02;97571.00;;;12.46;100.00
13867;BME280;7003;46.982;15.248;2023-05-20T03:59:30;97569.81;;;12.55;100.00
13867;BME280;7003;46.982;15.248;2023-05-20T04:02:01;97573.47;;;12.51;100.00
13867;BME280;7003;46.982;15.248;2023-05-20T04:04:31;97586.28;;;12.57;100.00
13867;BME280;7003;46.982;15.248;2023-05-20T04:06:59;97593.44;;;12.65;100.00
13867;BME280;7003;46.982;15.248;2023-05-20T04:09:28;97596.09;;;12.65;100.00
13867;BME280;7003;46.982;15.248;2023-05-20T04:11:59;97588.94;;;12.57;100.00
13867;BME280;7003;46.982;15.248;2023-05-20T04:14:30;97580.63;;;12.59;100.00
13867;BME280;7003;46.982;15.248;2023-05-20T04:17:01;97575.06;;;12.64;100.00
13867;BME280;7003;46.982;15.248;2023-05-20T04:19:29;97571.88;;;12.70;100.00
13867;BME280;7003;46.982;15.248;2023-05-20T04:21:57;97578.91;;;12.75;100.00
13867;BME280;7003;46.982;15.248;2023-05-20T04:24:28;97568.78;;;12.68;100.00
13867;BME280;7003;46.982;15.248;2023-05-20T04:26:56;97577.47;;;12.78;100.00
13867;BME280;7003;46.982;15.248;2023-05-20T04:29:26;97574.59;;;12.83;100.00
13867;BME280;7003;46.982;15.248;2023-05-20T04:31:57;97573.34;;;12.80;100.00
13867;BME280;7003;46.982;15.248;2023-05-20T04:34:28;97575.38;;;12.83;100.00
13867;BME280;7003;46.982;15.248;2023-05-20T04:37:02;97581.03;;;12.82;100.00
13867;BME280;7003;46.982;15.248;2023-05-20T04:39:36;97579.72;;;12.88;100.00
13867;BME280;7003;46.982;15.248;2023-05-20T04:42:04;97581.44;;;12.92;100.00
13867;BME280;7003;46.982;15.248;2023-05-20T04:44:36;97583.88;;;12.97;100.00
13867;BME280;7003;46.982;15.248;2023-05-20T04:47:04;97581.13;;;13.06;100.00
13867;BME280;7003;46.982;15.248;2023-05-20T04:49:33;97581.16;;;13.18;100.00
13867;BME280;7003;46.982;15.248;2023-05-20T04:52:04;97580.03;;;13.07;100.00
13867;BME280;7003;46.982;15.248;2023-05-20T04:54:32;97580.06;;;13.19;100.00
13867;BME280;7003;46.982;15.248;2023-05-20T04:57:03;97579.41;;;13.22;100.00
13867;BME280;7003;46.982;15.248;2023-05-20T04:59:36;97575.41;;;13.28;100.00
13867;BME280;7003;46.982;15.248;2023-05-20T05:02:04;97572.53;;;13.33;100.00
13867;BME280;7003;46.982;15.248;2023-05-20T05:04:35;97572.97;;;13.35;100.00
13867;BME280;7003;46.982;15.248;2023-05-20T05:07:02;97571.97;;;13.40;100.00
13867;BME280;7003;46.982;15.248;2023-05-20T05:09:31;97563.53;;;13.38;100.00
13867;BME280;7003;46.982;15.248;2023-05-20T05:12:01;97575.66;;;13.35;100.00
13867;BME280;7003;46.982;15.248;2023-05-20T05:14:29;97576.09;;;13.37;100.00
13867;BME280;7003;46.982;15.248;2023-05-20T05:16:59;97583.66;;;13.47;100.00
13867;BME280;7003;46.982;15.248;2023-05-20T05:19:27;97573.88;;;13.52;100.00
13867;BME280;7003;46.982;15.248;2023-05-20T05:21:55;97576.88;;;13.50;100.00
13867;BME280;7003;46.982;15.248;2023-05-20T05:24:23;97580.47;;;13.66;100.00
13867;BME280;7003;46.982;15.248;2023-05-20T05:26:52;97583.69;;;13.60;100.00
13867;BME280;7003;46.982;15.248;2023-05-20T05:29:20;97589.03;;;13.60;100.00
13867;BME280;7003;46.982;15.248;2023-05-20T05:31:48;97587.69;;;13.54;100.00
13867;BME280;7003;46.982;15.248;2023-05-20T05:34:20;97589.13;;;13.51;100.00
13867;BME280;7003;46.982;15.248;2023-05-20T05:36:50;97592.81;;;13.59;100.00
13867;BME280;7003;46.982;15.248;2023-05-20T05:39:19;97588.16;;;13.68;100.00
13867;BME280;7003;46.982;15.248;2023-05-20T05:41:46;97587.91;;;13.73;100.00
13867;BME280;7003;46.982;15.248;2023-05-20T05:44:14;97583.69;;;13.60;100.00
13867;BME280;7003;46.982;15.248;2023-05-20T05:46:42;97587.59;;;13.62;100.00
13867;BME280;7003;46.982;15.248;2023-05-20T05:49:10;97586.81;;;13.74;100.00
13867;BME280;7003;46.982;15.248;2023-05-20T05:51:39;97591.69;;;13.72;100.00
13867;BME280;7003;46.982;15.248;2023-05-20T05:54:08;97592.84;;;13.83;100.00
13867;BME280;7003;46.982;15.248;2023-05-20T05:56:38;97598.06;;;13.92;100.00
13867;BME280;7003;46.982;15.248;2023-05-20T05:59:07;97582.13;;;13.95;100.00
13867;BME280;7003;46.982;15.248;2023-05-20T06:01:35;97586.03;;;13.98;100.00
13867;BME280;7003;46.982;15.248;2023-05-20T06:04:06;97589.03;;;13.96;100.00
13867;BME280;7003;46.982;15.248;2023-05-20T06:06:34;97591.56;;;14.17;100.00
13867;BME280;7003;46.982;15.248;2023-05-20T06:09:06;97583.91;;;14.15;100.00
13867;BME280;7003;46.982;15.248;2023-05-20T06:11:36;97584.75;;;14.32;100.00
13867;BME280;7003;46.982;15.248;2023-05-20T06:14:06;97576.47;;;14.37;100.00
13867;BME280;7003;46.982;15.248;2023-05-20T06:16:35;97572.91;;;14.33;100.00
13867;BME280;7003;46.982;15.248;2023-05-20T06:19:02;97579.16;;;14.49;100.00
13867;BME280;7003;46.982;15.248;2023-05-20T06:21:32;97578.59;;;14.43;100.00
13867;BME280;7003;46.982;15.248;2023-05-20T06:24:00;97577.94;;;14.74;100.00
13867;BME280;7003;46.982;15.248;2023-05-20T06:26:29;97576.63;;;14.68;100.00
13867;BME280;7003;46.982;15.248;2023-05-20T06:28:58;97585.31;;;14.77;100.00
13867;BME280;7003;46.982;15.248;2023-05-20T06:31:25;97576.56;;;14.80;100.00
13867;BME280;7003;46.982;15.248;2023-05-20T06:33:55;97579.97;;;14.77;100.00
13867;BME280;7003;46.982;15.248;2023-05-20T06:36:26;97582.81;;;14.84;100.00
13867;BME280;7003;46.982;15.248;2023-05-20T06:38:57;97578.97;;;14.97;100.00
13867;BME280;7003;46.982;15.248;2023-05-20T06:41:24;97583.31;;;15.02;100.00
13867;BME280;7003;46.982;15.248;2023-05-20T06:43:53;97583.97;;;14.99;100.00
13867;BME280;7003;46.982;15.248;2023-05-20T06:46:23;97577.94;;;15.18;100.00
13867;BME280;7003;46.982;15.248;2023-05-20T06:48:50;97582.31;;;15.38;100.00
13867;BME280;7003;46.982;15.248;2023-05-20T06:51:18;97574.94;;;15.35;100.00
13867;BME280;7003;46.982;15.248;2023-05-20T06:53:48;97575.72;;;15.35;100.00
13867;BME280;7003;46.982;15.248;2023-05-20T06:56:19;97564.94;;;15.48;100.00
13867;BME280;7003;46.982;15.248;2023-05-20T06:58:46;97568.59;;;15.55;100.00
13867;BME280;7003;46.982;15.248;2023-05-20T07:01:18;97566.31;;;15.57;100.00
13867;BME280;7003;46.982;15.248;2023-05-20T07:03:45;97562.00;;;15.68;100.00
13867;BME280;7003;46.982;15.248;2023-05-20T07:06:16;97556.44;;;15.93;100.00
13867;BME280;7003;46.982;15.248;2023-05-20T07:08:43;97563.72;;;16.46;100.00
13867;BME280;7003;46.982;15.248;2023-05-20T07:11:11;97554.94;;;16.49;100.00
13867;BME280;7003;46.982;15.248;2023-05-20T07:13:41;97552.22;;;16.65;100.00
13867;BME280;7003;46.982;15.248;2023-05-20T07:16:08;97554.25;;;16.52;100.00
13867;BME280;7003;46.982;15.248;2023-05-20T07:18:40;97549.44;;;16.81;100.00
13867;BME280;7003;46.982;15.248;2023-05-20T07:21:07;97546.66;;;16.97;100.00
13867;BME280;7003;46.982;15.248;2023-05-20T07:23:35;97538.34;;;17.24;100.00
13867;BME280;7003;46.982;15.248;2023-05-20T07:26:05;97537.09;;;17.41;100.00
13867;BME280;7003;46.982;15.248;2023-05-20T07:28:32;97527.94;;;17.46;100.00
13867;BME280;7003;46.982;15.248;2023-05-20T07:31:01;97536.06;;;17.98;100.00
13867;BME280;7003;46.982;15.248;2023-05-20T07:33:29;97526.34;;;18.20;100.00
13867;BME280;7003;46.982;15.248;2023-05-20T07:36:00;97534.91;;;17.99;100.00
13867;BME280;7003;46.982;15.248;2023-05-20T07:38:29;97527.34;;;18.08;100.00
13867;BME280;7003;46.982;15.248;2023-05-20T07:40:59;97525.03;;;18.37;100.00
13867;BME280;7003;46.982;15.248;2023-05-20T07:43:30;97532.84;;;18.16;100.00
13867;BME280;7003;46.982;15.248;2023-05-20T07:46:00;97534.09;;;17.95;100.00
13867;BME280;7003;46.982;15.248;2023-05-20T07:48:27;97534.22;;;18.06;100.00
13867;BME280;7003;46.982;15.248;2023-05-20T07:50:55;97537.22;;;17.71;100.00
13867;BME280;7003;46.982;15.248;2023-05-20T07:53:27;97537.50;;;17.43;100.00
13867;BME280;7003;46.982;15.248;2023-05-20T07:55:55;97536.56;;;17.32;100.00
13867;BME280;7003;46.982;15.248;2023-05-20T07:58:25;97539.78;;;17.41;100.00
13867;BME280;7003;46.982;15.248;2023-05-20T08:00:53;97529.53;;;17.27;100.00
13867;BME280;7003;46.982;15.248;2023-05-20T08:03:23;97527.22;;;17.49;100.00
13867;BME280;7003;46.982;15.248;2023-05-20T08:05:51;97531.19;;;17.81;100.00
13867;BME280;7003;46.982;15.248;2023-05-20T08:08:19;97529.38;;;17.89;100.00
13867;BME280;7003;46.982;15.248;2023-05-20T08:10:51;97538.28;;;17.44;100.00
13867;BME280;7003;46.982;15.248;2023-05-20T08:13:19;97527.47;;;17.63;100.00
13867;BME280;7003;46.982;15.248;2023-05-20T08:15:46;97525.09;;;17.84;100.00
13867;BME280;7003;46.982;15.248;2023-05-20T08:18:17;97526.03;;;17.95;100.00
13867;BME280;7003;46.982;15.248;2023-05-20T08:20:47;97528.56;;;18.11;100.00
13867;BME280;7003;46.982;15.248;2023-05-20T08:23:18;97519.19;;;18.31;100.00
13867;BME280;7003;46.982;15.248;2023-05-20T08:25:48;97515.00;;;18.34;100.00
13867;BME280;7003;46.982;15.248;2023-05-20T08:28:20;97507.59;;;18.57;100.00
13867;BME280;7003;46.982;15.248;2023-05-20T08:30:49;97502.78;;;18.43;100.00
13867;BME280;7003;46.982;15.248;2023-05-20T08:33:19;97502.16;;;18.91;100.00
13867;BME280;7003;46.982;15.248;2023-05-20T08:35:46;97502.56;;;18.93;100.00
13867;BME280;7003;46.982;15.248;2023-05-20T08:38:14;97492.72;;;18.70;100.00
13867;BME280;7003;46.982;15.248;2023-05-20T08:40:45;97495.44;;;18.70;100.00
13867;BME280;7003;46.982;15.248;2023-05-20T08:43:12;97483.44;;;18.64;100.00
13867;BME280;7003;46.982;15.248;2023-05-20T08:45:44;97488.69;;;18.91;100.00
13867;BME280;7003;46.982;15.248;2023-05-20T08:48:13;97485.63;;;19.36;100.00
13867;BME280;7003;46.982;15.248;2023-05-20T08:50:42;97488.72;;;19.38;100.00
13867;BME280;7003;46.982;15.248;2023-05-20T08:53:13;97483.06;;;19.50;100.00
13867;BME280;7003;46.982;15.248;2023-05-20T08:55:45;97484.25;;;19.09;100.00
13867;BME280;7003;46.982;15.248;2023-05-20T08:58:14;97481.53;;;19.49;100.00
13867;BME280;7003;46.982;15.248;2023-05-20T09:00:46;97482.41;;;19.68;100.00
13867;BME280;7003;46.982;15.248;2023-05-20T09:03:16;97477.81;;;19.72;100.00
13867;BME280;7003;46.982;15.248;2023-05-20T09:05:45;97470.16;;;19.84;100.00
13867;BME280;7003;46.982;15.248;2023-05-20T09:08:13;97470.94;;;19.81;100.00
13867;BME280;7003;46.982;15.248;2023-05-20T09:10:41;97463.00;;;20.17;100.00
13867;BME280;7003;46.982;15.248;2023-05-20T09:13:12;97467.31;;;20.28;100.00
13867;BME280;7003;46.982;15.248;2023-05-20T09:15:40;97465.38;;;20.32;100.00
13867;BME280;7003;46.982;15.248;2023-05-20T09:18:11;97467.91;;;19.93;100.00
13867;BME280;7003;46.982;15.248;2023-05-20T09:20:39;97469.50;;;20.02;100.00
13867;BME280;7003;46.982;15.248;2023-05-20T09:23:08;97467.16;;;20.00;100.00
13867;BME280;7003;46.982;15.248;2023-05-20T09:25:36;97462.72;;;20.40;100.00
13867;BME280;7003;46.982;15.248;2023-05-20T09:28:04;97459.50;;;20.09;100.00
13867;BME280;7003;46.982;15.248;2023-05-20T09:30:32;97456.06;;;20.19;100.00
13867;BME280;7003;46.982;15.248;2023-05-20T09:33:02;97459.72;;;20.66;100.00
13867;BME280;7003;46.982;15.248;2023-05-20T09:35:34;97455.91;;;20.88;100.00
13867;BME280;7003;46.982;15.248;2023-05-20T09:38:04;97454.72;;;21.14;100.00
13867;BME280;7003;46.982;15.248;2023-05-20T09:40:34;97456.63;;;21.88;100.00
13867;BME280;7003;46.982;15.248;2023-05-20T09:43:05;97450.44;;;21.91;100.00
13867;BME280;7003;46.982;15.248;2023-05-20T09:45:33;97451.28;;;21.49;100.00
13867;BME280;7003;46.982;15.248;2023-05-20T09:48:04;97455.16;;;21.34;100.00
13867;BME280;7003;46.982;15.248;2023-05-20T09:50:34;97455.13;;;20.81;100.00
13867;BME280;7003;46.982;15.248;2023-05-20T09:53:04;97453.19;;;21.02;100.00
13867;BME280;7003;46.982;15.248;2023-05-20T09:55:36;97452.06;;;21.25;100.00
13867;BME280;7003;46.982;15.248;2023-05-20T09:58:04;97443.47;;;21.79;100.00
13867;BME280;7003;46.982;15.248;2023-05-20T10:00:32;97441.94;;;21.82;100.00
13867;BME280;7003;46.982;15.248;2023-05-20T10:03:03;97434.28;;;21.24;100.00
13867;BME280;7003;46.982;15.248;2023-05-20T10:05:34;97431.59;;;21.17;100.00
13867;BME280;7003;46.982;15.248;2023-05-20T10:08:28;97437.38;;;20.90;100.00
13867;BME280;7003;46.982;15.248;2023-05-20T10:11:06;97429.91;;;20.45;100.00
13867;BME280;7003;46.982;15.248;2023-05-20T10:13:46;97436.91;;;20.60;100.00
13867;BME280;7003;46.982;15.248;2023-05-20T10:16:23;97431.97;;;21.36;100.00
13867;BME280;7003;46.982;15.248;2023-05-20T10:19:04;97425.31;;;21.73;100.00
13867;BME280;7003;46.982;15.248;2023-05-20T10:21:37;97428.72;;;22.12;100.00
13867;BME280;7003;46.982;15.248;2023-05-20T10:24:05;97422.59;;;21.76;100.00
13867;BME280;7003;46.982;15.248;2023-05-20T10:26:36;97417.69;;;21.36;100.00
13867;BME280;7003;46.982;15.248;2023-05-20T10:29:14;97418.06;;;21.17;100.00
13867;BME280;7003;46.982;15.248;2023-05-20T10:31:48;97421.91;;;21.16;100.00
13867;BME280;7003;46.982;15.248;2023-05-20T10:34:23;97422.69;;;21.41;100.00
13867;BME280;7003;46.982;15.248;2023-05-20T10:36:59;97416.41;;;21.79;100.00
13867;BME280;7003;46.982;15.248;2023-05-20T10:39:30;97421.00;;;22.04;100.00
13867;BME280;7003;46.982;15.248;2023-05-20T10:42:06;97431.16;;;21.57;100.00
13867;BME280;7003;46.982;15.248;2023-05-20T10:44:40;97418.81;;;21.38;100.00
13867;BME280;7003;46.982;15.248;2023-05-20T10:47:09;97406.41;;;21.62;100.00
13867;BME280;7003;46.982;15.248;2023-05-20T10:49:40;97406.00;;;21.74;100.00
13867;BME280;7003;46.982;15.248;2023-05-20T10:52:13;97405.13;;;21.92;100.00
13867;BME280;7003;46.982;15.248;2023-05-20T10:54:46;97414.03;;;22.06;100.00
13867;BME280;7003;46.982;15.248;2023-05-20T10:57:14;97411.47;;;21.14;100.00
13867;BME280;7003;46.982;15.248;2023-05-20T10:59:41;97406.81;;;20.65;100.00
13867;BME280;7003;46.982;15.248;2023-05-20T11:02:10;97411.88;;;21.27;100.00
13867;BME280;7003;46.982;15.248;2023-05-20T11:04:38;97415.69;;;21.58;100.00
13867;BME280;7003;46.982;15.248;2023-05-20T11:07:09;97398.34;;;21.27;100.00
13867;BME280;7003;46.982;15.248;2023-05-20T11:09:38;97397.19;;;21.35;100.00
13867;BME280;7003;46.982;15.248;2023-05-20T11:12:05;97393.19;;;21.78;100.00
13867;BME280;7003;46.982;15.248;2023-05-20T11:14:34;97386.91;;;22.10;100.00
13867;BME280;7003;46.982;15.248;2023-05-20T11:17:02;97391.31;;;21.65;100.00
13867;BME280;7003;46.982;15.248;2023-05-20T11:19:30;97388.25;;;21.45;100.00
13867;BME280;7003;46.982;15.248;2023-05-20T11:21:57;97384.75;;;21.62;100.00
13867;BME280;7003;46.982;15.248;2023-05-20T11:24:25;97380.72;;;22.13;100.00
13867;BME280;7003;46.982;15.248;2023-05-20T11:26:55;97381.41;;;22.27;100.00
13867;BME280;7003;46.982;15.248;2023-05-20T11:29:25;97374.59;;;21.87;100.00
13867;BME280;7003;46.982;15.248;2023-05-20T11:31:56;97376.53;;;21.91;100.00
13867;BME280;7003;46.982;15.248;2023-05-20T11:34:24;97374.34;;;22.44;100.00
13867;BME280;7003;46.982;15.248;2023-05-20T11:36:58;97368.88;;;22.51;100.00
13867;BME280;7003;46.982;15.248;2023-05-20T11:39:28;97360.81;;;22.96;100.00
13867;BME280;7003;46.982;15.248;2023-05-20T11:41:57;97365.56;;;23.29;100.00
13867;BME280;7003;46.982;15.248;2023-05-20T11:44:27;97365.41;;;23.44;99.97
13867;BME280;7003;46.982;15.248;2023-05-20T11:46:59;97379.56;;;23.62;100.00
13867;BME280;7003;46.982;15.248;2023-05-20T11:49:29;97365.47;;;23.74;96.66
13867;BME280;7003;46.982;15.248;2023-05-20T11:51:56;97370.63;;;22.83;88.28
13867;BME280;7003;46.982;15.248;2023-05-20T11:54:24;97363.78;;;22.60;94.32
13867;BME280;7003;46.982;15.248;2023-05-20T11:56:54;97371.00;;;22.15;96.14
13867;BME280;7003;46.982;15.248;2023-05-20T11:59:24;97357.97;;;22.58;98.94
13867;BME280;7003;46.982;15.248;2023-05-20T12:01:54;97369.50;;;22.73;91.21
13867;BME280;7003;46.982;15.248;2023-05-20T12:04:24;97356.44;;;23.09;97.23
13867;BME280;7003;46.982;15.248;2023-05-20T12:06:51;97361.28;;;23.28;87.03
13867;BME280;7003;46.982;15.248;2023-05-20T12:09:23;97355.19;;;23.17;89.08
13867;BME280;7003;46.982;15.248;2023-05-20T12:11:50;97355.44;;;22.37;100.00
13867;BME280;7003;46.982;15.248;2023-05-20T12:14:20;97358.75;;;22.59;94.15
13867;BME280;7003;46.982;15.248;2023-05-20T12:16:51;97350.09;;;22.78;92.56
13867;BME280;7003;46.982;15.248;2023-05-20T12:19:19;97343.38;;;23.34;98.80
13867;BME280;7003;46.982;15.248;2023-05-20T12:21:48;97344.97;;;22.91;99.97
13867;BME280;7003;46.982;15.248;2023-05-20T12:24:17;97341.84;;;23.33;92.23
13867;BME280;7003;46.982;15.248;2023-05-20T12:26:45;97336.94;;;23.59;89.13
13867;BME280;7003;46.982;15.248;2023-05-20T12:29:15;97342.09;;;22.57;84.94
13867;BME280;7003;46.982;15.248;2023-05-20T12:31:42;97338.66;;;23.05;82.08
13867;BME280;7003;46.982;15.248;2023-05-20T12:34:11;97341.50;;;22.87;82.69
13867;BME280;7003;46.982;15.248;2023-05-20T12:36:41;97332.28;;;22.77;83.98
13867;BME280;7003;46.982;15.248;2023-05-20T12:39:08;97339.28;;;22.71;92.24
13867;BME280;7003;46.982;15.248;2023-05-20T12:41:39;97339.50;;;22.39;95.93
13867;BME280;7003;46.982;15.248;2023-05-20T12:44:07;97333.69;;;22.44;99.81
13867;BME280;7003;46.982;15.248;2023-05-20T12:46:35;97338.41;;;22.33;95.67
13867;BME280;7003;46.982;15.248;2023-05-20T12:49:05;97331.25;;;21.98;94.42
13867;BME280;7003;46.982;15.248;2023-05-20T12:51:37;97334.09;;;21.66;96.13
13867;BME280;7003;46.982;15.248;2023-05-20T12:54:07;97336.81;;;21.56;100.00
13867;BME280;7003;46.982;15.248;2023-05-20T12:56:34;97338.28;;;21.78;100.00
13867;BME280;7003;46.982;15.248;2023-05-20T12:59:01;97338.34;;;21.67;100.00
13867;BME280;7003;46.982;15.248;2023-05-20T13:01:31;97335.19;;;21.79;100.00